Time;durP1;ratioP1;P1;durP2;ratioP2;P2;SDS_P1;SDS_P2;PMS_P1;PMS_P2;Temp;Humidity;BMP_temperature;BMP_pressure;BME280_temperature;BME280_humidity;BME280_pressure;Samples;Min_cycle;Max_cycle;Signal;HPM_P1;HPM_P2
2023/09/14 00:00:20;;;;;;;0.40;0.40;;;;;;;16.62;96.29;97264.44;29395;239;63008;-54
2023/09/14 00:00:52;;;;;;;0.40;0.40;;;;;;;16.62;96.76;97269.09;29395;198;63005;-56
2023/09/14 00:01:23;;;;;;;0.40;0.40;;;;;;;16.60;96.97;97266.69;29394;217;64014;-54
2023/09/14 00:01:55;;;;;;;0.40;0.40;;;;;;;16.59;96.89;97265.06;29395;351;63005;-54
2023/09/14 00:02:26;;;;;;;0.40;0.40;;;;;;;16.59;96.75;97267.00;29395;197;63009;-55
2023/09/14 00:02:59;;;;;;;0.40;0.40;;;;;;;16.60;96.80;97266.69;29394;228;64009;-54
2023/09/14 00:03:31;;;;;;;0.40;0.40;;;;;;;16.61;96.70;97267.50;29395;263;63009;-55
2023/09/14 00:04:02;;;;;;;0.40;0.40;;;;;;;16.60;96.63;97271.38;29395;275;63013;-55
2023/09/14 00:04:35;;;;;;;0.40;0.40;;;;;;;16.59;96.59;97265.06;29395;263;63009;-55
2023/09/14 00:05:09;;;;;;;0.40;0.40;;;;;;;16.59;96.34;97269.75;29395;272;63004;-55
2023/09/14 00:05:41;;;;;;;0.40;0.40;;;;;;;16.57;97.03;97267.34;29395;251;63009;-54
2023/09/14 00:06:12;;;;;;;0.40;0.40;;;;;;;16.56;97.13;97267.66;29395;197;63017;-54
2023/09/14 00:06:44;;;;;;;0.40;0.40;;;;;;;16.54;97.31;97262.50;29394;353;64013;-55
2023/09/14 00:07:15;;;;;;;0.40;0.40;;;;;;;16.53;97.58;97269.09;29395;236;63004;-54
2023/09/14 00:07:46;;;;;;;0.40;0.40;;;;;;;16.53;97.49;97271.84;29395;287;63008;-55
2023/09/14 00:08:19;;;;;;;0.40;0.40;;;;;;;16.52;97.44;97263.94;29395;286;63005;-54
2023/09/14 00:08:51;;;;;;;0.40;0.40;;;;;;;16.51;97.15;97268.62;29395;244;63009;-54
2023/09/14 00:09:22;;;;;;;0.40;0.40;;;;;;;16.51;97.59;97268.62;29395;287;63005;-56
2023/09/14 00:09:53;;;;;;;0.40;0.40;;;;;;;16.51;97.34;97265.88;29395;288;63009;-69
2023/09/14 00:10:28;;;;;;;0.40;0.40;;;;;;;16.52;97.66;97267.50;29395;209;63005;-69
2023/09/14 00:11:02;;;;;;;0.40;0.40;;;;;;;16.51;97.56;97268.62;29395;244;63018;-69
2023/09/14 00:11:34;;;;;;;0.40;0.40;;;;;;;16.51;97.53;97267.81;29395;238;63010;-69
2023/09/14 00:12:06;;;;;;;0.40;0.40;;;;;;;16.50;97.44;97275.22;29394;257;64013;-69
2023/09/14 00:12:37;;;;;;;0.40;0.40;;;;;;;16.51;97.45;97265.88;29395;197;63004;-55
2023/09/14 00:13:10;;;;;;;0.40;0.40;;;;;;;16.52;97.44;97270.22;29395;214;63009;-55
2023/09/14 00:13:41;;;;;;;0.32;0.32;;;;;;;16.54;97.42;97270.72;29395;272;63004;-68
2023/09/14 00:14:12;;;;;;;0.40;0.40;;;;;;;16.53;97.18;97271.84;29395;234;63009;-69
2023/09/14 00:14:43;;;;;;;0.40;0.40;;;;;;;16.54;97.44;97265.22;29395;246;63000;-70
2023/09/14 00:15:16;;;;;;;0.30;0.30;;;;;;;16.55;97.39;97264.09;29395;196;63008;-72
2023/09/14 00:15:47;;;;;;;0.40;0.40;;;;;;;16.55;97.53;97264.09;29395;293;63005;-68
2023/09/14 00:16:19;;;;;;;0.40;0.40;;;;;;;16.55;97.46;97264.09;29395;298;63009;-70
2023/09/14 00:16:50;;;;;;;0.40;0.40;;;;;;;16.53;97.16;97266.34;29395;213;63005;-70
2023/09/14 00:17:21;;;;;;;0.40;0.40;;;;;;;16.53;97.45;97266.34;29394;209;64014;-68
2023/09/14 00:17:55;;;;;;;0.40;0.40;;;;;;;16.52;97.44;97263.94;29395;245;63005;-55
2023/09/14 00:18:27;;;;;;;0.40;0.40;;;;;;;16.49;97.79;97264.59;29395;208;63009;-68
2023/09/14 00:18:58;;;;;;;0.40;0.40;;;;;;;16.43;98.33;97264.75;29395;258;63005;-69
2023/09/14 00:19:30;;;;;;;0.40;0.40;;;;;;;16.41;98.71;97263.44;29395;310;63016;-68
2023/09/14 00:20:01;;;;;;;0.40;0.40;;;;;;;16.40;98.48;97268.12;29395;235;63004;-70
2023/09/14 00:20:34;;;;;;;0.40;0.40;;;;;;;16.39;98.24;97266.50;29395;331;63016;-55
2023/09/14 00:21:05;;;;;;;0.40;0.40;;;;;;;16.41;98.48;97268.91;29395;218;63004;-54
2023/09/14 00:21:36;;;;;;;0.40;0.40;;;;;;;16.40;98.45;97267.31;29395;267;63009;-69
2023/09/14 00:22:08;;;;;;;0.40;0.40;;;;;;;16.40;98.21;97267.31;29395;206;63004;-72
2023/09/14 00:22:41;;;;;;;0.40;0.40;;;;;;;16.39;98.88;97265.69;29394;215;64013;-70
2023/09/14 00:23:13;;;;;;;0.40;0.40;;;;;;;16.39;98.67;97265.69;29395;226;63004;-70
2023/09/14 00:23:44;;;;;;;0.40;0.40;;;;;;;16.38;98.85;97262.16;29395;312;63009;-72
2023/09/14 00:24:15;;;;;;;0.40;0.40;;;;;;;16.38;98.36;97264.09;29395;197;63005;-71
2023/09/14 00:24:46;;;;;;;0.35;0.35;;;;;;;16.37;98.62;97267.94;29395;223;63021;-53
2023/09/14 00:25:19;;;;;;;0.40;0.40;;;;;;;16.35;98.80;97259.25;29395;253;63005;-68
2023/09/14 00:25:50;;;;;;;0.40;0.40;;;;;;;16.34;99.30;97263.91;29395;239;63009;-67
2023/09/14 00:26:21;;;;;;;0.40;0.40;;;;;;;16.36;99.06;97260.84;29395;198;63005;-68
2023/09/14 00:26:53;;;;;;;0.40;0.40;;;;;;;16.36;98.94;97260.84;29395;319;63009;-54
2023/09/14 00:27:25;;;;;;;0.40;0.40;;;;;;;16.36;98.63;97258.13;29395;353;63004;-67
2023/09/14 00:27:56;;;;;;;0.40;0.40;;;;;;;16.36;99.07;97260.84;29394;218;64013;-68
2023/09/14 00:28:28;;;;;;;0.40;0.40;;;;;;;16.34;99.40;97263.09;29395;253;63004;-54
2023/09/14 00:29:01;;;;;;;0.40;0.40;;;;;;;16.32;99.61;97259.88;29395;295;63009;-54
2023/09/14 00:29:32;;;;;;;0.40;0.40;;;;;;;16.30;99.89;97262.13;29395;264;63004;-68
2023/09/14 00:30:04;;;;;;;0.40;0.40;;;;;;;16.29;99.83;97260.53;29395;251;63008;-71
2023/09/14 00:30:36;;;;;;;0.40;0.40;;;;;;;16.28;99.78;97256.19;29395;262;63004;-54
2023/09/14 00:31:07;;;;;;;0.40;0.40;;;;;;;16.28;99.77;97258.94;29395;197;63017;-69
2023/09/14 00:31:38;;;;;;;0.40;0.40;;;;;;;16.28;99.71;97258.94;29395;237;63005;-53
2023/09/14 00:32:09;;;;;;;0.40;0.40;;;;;;;16.27;100.00;97260.88;29395;241;63009;-68
2023/09/14 00:32:42;;;;;;;0.40;0.40;;;;;;;16.25;100.00;97265.06;29394;249;64009;-54
2023/09/14 00:33:13;;;;;;;0.40;0.40;;;;;;;16.23;100.00;97267.31;29395;264;63009;-54
2023/09/14 00:33:45;;;;;;;0.30;0.30;;;;;;;16.22;100.00;97268.44;29395;293;63005;-55
2023/09/14 00:34:16;;;;;;;0.40;0.40;;;;;;;16.20;100.00;97267.94;29394;206;64013;-56
2023/09/14 00:34:47;;;;;;;0.40;0.40;;;;;;;16.20;100.00;97267.94;29395;324;63004;-54
2023/09/14 00:35:20;;;;;;;0.40;0.40;;;;;;;16.19;100.00;97264.41;29395;255;63009;-68
2023/09/14 00:35:52;;;;;;;0.40;0.40;;;;;;;16.18;100.00;97264.72;29395;314;63004;-68
2023/09/14 00:36:24;;;;;;;1.02;1.02;;;;;;;16.18;100.00;97264.72;29395;229;63009;-69
2023/09/14 00:36:57;;;;;;;0.40;0.40;;;;;;;16.18;100.00;97261.97;29395;260;63004;-68
2023/09/14 00:37:30;;;;;;;0.40;0.40;;;;;;;16.16;100.00;97267.78;29395;220;63008;-68
2023/09/14 00:38:01;;;;;;;0.40;0.40;;;;;;;16.16;100.00;97266.97;29395;223;63005;-70
2023/09/14 00:38:32;;;;;;;0.40;0.40;;;;;;;16.16;100.00;97256.03;29395;294;63009;-70
2023/09/14 00:39:04;;;;;;;0.40;0.40;;;;;;;16.15;100.00;97260.69;29395;259;63005;-69
2023/09/14 00:39:35;;;;;;;0.40;0.40;;;;;;;16.14;100.00;97269.22;29394;282;64013;-54
2023/09/14 00:40:10;;;;;;;0.40;0.40;;;;;;;16.12;100.00;97266.78;29395;268;63005;-68
2023/09/14 00:40:44;;;;;;;0.40;0.40;;;;;;;16.10;100.00;97266.31;29394;222;64003;-54
2023/09/14 00:41:15;;;;;;;0.40;0.40;;;;;;;16.09;100.00;97267.44;29395;237;63005;-68
2023/09/14 00:41:46;;;;;;;0.40;0.40;;;;;;;16.07;100.00;97270.50;29395;283;63009;-68
2023/09/14 00:42:20;;;;;;;0.80;0.80;;;;;;;16.07;100.00;97265.00;29395;214;63004;-54
2023/09/14 00:42:52;;;;;;;0.40;0.40;;;;;;;16.08;100.00;97266.63;29395;322;63009;-55
2023/09/14 00:43:23;;;;;;;0.40;0.40;;;;;;;16.08;100.00;97269.38;29395;202;63004;-54
2023/09/14 00:43:54;;;;;;;0.40;0.40;;;;;;;16.08;100.00;97266.63;29395;238;63004;-54
2023/09/14 00:44:26;;;;;;;0.40;0.40;;;;;;;16.07;100.00;97265.00;29394;224;64008;-67
2023/09/14 00:44:57;;;;;;;0.40;0.40;;;;;;;16.05;100.00;97267.25;29395;196;63008;-68
2023/09/14 00:45:32;;;;;;;0.40;0.40;;;;;;;16.06;100.00;97262.59;29395;216;63005;-54
2023/09/14 00:46:03;;;;;;;0.40;0.40;;;;;;;16.06;100.00;97268.88;29395;244;63009;-54
2023/09/14 00:46:35;;;;;;;0.40;0.40;;;;;;;16.04;100.00;97268.38;29395;213;63010;-70
2023/09/14 00:47:07;;;;;;;0.40;0.40;;;;;;;16.04;100.00;97264.84;29395;208;63009;-67
2023/09/14 00:47:48;;;;;;;0.30;0.30;;;;;;;16.02;100.00;97267.09;29395;244;63019;-54
2023/09/14 00:48:20;;;;;;;;;;;;;;;16.00;100.00;97267.41;29996;982;6004;-68
2023/09/14 00:48:51;;;;;;;0.45;0.45;;;;;;;15.99;100.00;97271.25;29422;222;63009;-69
2023/09/14 00:49:23;;;;;;;0.40;0.40;;;;;;;15.99;100.00;97271.25;29395;223;63004;-68
2023/09/14 00:49:55;;;;;;;0.40;0.40;;;;;;;15.98;100.00;97272.37;29394;216;64013;-54
2023/09/14 00:50:27;;;;;;;0.50;0.50;;;;;;;15.98;100.00;97272.37;29395;224;63004;-68
2023/09/14 00:50:59;;;;;;;0.50;0.50;;;;;;;15.96;100.00;97269.16;29395;225;63009;-67
2023/09/14 00:51:32;;;;;;;0.40;0.40;;;;;;;15.96;100.00;97266.44;29395;232;63004;-68
2023/09/14 00:52:06;;;;;;;0.40;0.40;;;;;;;15.95;100.00;97272.22;29395;210;63008;-70
2023/09/14 00:52:38;;;;;;;0.40;0.40;;;;;;;15.95;100.00;97266.75;29395;203;63004;-69
2023/09/14 00:53:13;;;;;;;0.45;0.45;;;;;;;15.94;100.00;97271.41;29395;219;63009;-69
2023/09/14 00:53:45;;;;;;;0.40;0.40;;;;;;;15.93;100.00;97269.81;29395;218;63005;-68
2023/09/14 00:54:20;;;;;;;0.40;0.40;;;;;;;15.92;100.00;97268.22;29395;208;63009;-68
2023/09/14 00:54:52;;;;;;;0.40;0.40;;;;;;;15.90;100.00;97267.72;29395;227;63009;-69
2023/09/14 00:55:26;;;;;;;0.40;0.40;;;;;;;15.89;100.00;97263.38;29394;207;64013;-69
2023/09/14 00:55:58;;;;;;;0.40;0.40;;;;;;;15.90;100.00;97267.72;29394;226;64009;-53
2023/09/14 00:56:30;;;;;;;0.50;0.50;;;;;;;15.88;100.00;97267.22;29395;262;63009;-69
2023/09/14 00:57:02;;;;;;;0.40;0.40;;;;;;;15.91;100.00;97266.59;29395;244;63004;-54
2023/09/14 00:57:35;;;;;;;0.40;0.40;;;;;;;15.90;100.00;97270.47;29395;225;63009;-68
2023/09/14 00:58:07;;;;;;;0.40;0.40;;;;;;;15.89;100.00;97277.06;29395;280;63004;-69
2023/09/14 00:58:39;;;;;;;0.40;0.40;;;;;;;15.87;100.00;97270.28;29395;218;63009;-70
2023/09/14 00:59:10;;;;;;;0.40;0.40;;;;;;;15.87;100.00;97268.34;29395;199;63004;-68
2023/09/14 00:59:42;;;;;;;0.40;0.40;;;;;;;15.85;100.00;97265.13;29395;252;63008;-69
2023/09/14 01:00:15;;;;;;;0.40;0.40;;;;;;;15.86;100.00;97271.41;29395;211;63017;-71
2023/09/14 01:00:47;;;;;;;0.40;0.40;;;;;;;15.85;100.00;97267.88;29395;234;63009;-68
2023/09/14 01:01:21;;;;;;;0.40;0.40;;;;;;;15.83;100.00;97270.13;29394;239;64009;-69
2023/09/14 01:01:55;;;;;;;0.40;0.40;;;;;;;15.83;100.00;97272.84;29395;216;63009;-53
2023/09/14 01:02:27;;;;;;;0.40;0.40;;;;;;;15.83;100.00;97278.31;29395;244;63005;-71
2023/09/14 01:02:59;;;;;;;0.40;0.40;;;;;;;15.82;100.00;97273.97;29394;211;64009;-54
2023/09/14 01:03:31;;;;;;;0.40;0.40;;;;;;;15.82;100.00;97270.44;29394;208;64009;-54
2023/09/14 01:04:05;;;;;;;0.40;0.40;;;;;;;15.82;100.00;97271.22;29395;223;63014;-68
2023/09/14 01:04:37;;;;;;;0.40;0.40;;;;;;;15.83;100.00;97272.03;29395;224;63010;-68
2023/09/14 01:05:10;;;;;;;0.40;0.40;;;;;;;15.83;100.00;97278.31;29395;203;63009;-68
2023/09/14 01:05:44;;;;;;;0.50;0.50;;;;;;;15.82;100.00;97273.16;29395;212;63004;-68
2023/09/14 01:06:16;;;;;;;0.40;0.40;;;;;;;15.81;100.00;97266.88;29395;245;63009;-68
2023/09/14 01:06:49;;;;;;;0.50;0.50;;;;;;;15.81;100.00;97272.34;29395;203;63004;-54
2023/09/14 01:07:24;;;;;;;0.40;0.40;;;;;;;15.80;100.00;97272.66;29395;225;63008;-68
2023/09/14 01:07:58;;;;;;;0.60;0.60;;;;;;;15.81;100.00;97274.28;29395;206;63005;-69
2023/09/14 01:08:29;;;;;;;0.40;0.40;;;;;;;15.81;100.00;97274.28;29394;236;64014;-69
2023/09/14 01:09:03;;;;;;;0.40;0.40;;;;;;;15.81;100.00;97277.81;29395;197;63005;-71
2023/09/14 01:09:35;;;;;;;0.43;0.43;;;;;;;15.81;100.00;97275.09;29395;230;63009;-72
2023/09/14 01:10:09;;;;;;;0.40;0.40;;;;;;;15.80;100.00;97272.66;29395;300;63005;-68
2023/09/14 01:10:44;;;;;;;0.43;0.43;;;;;;;15.82;100.00;97268.50;29395;245;63009;-55
2023/09/14 01:11:16;;;;;;;0.40;0.40;;;;;;;15.81;100.00;97277.81;29395;218;63005;-54
2023/09/14 01:11:47;;;;;;;0.40;0.40;;;;;;;15.80;100.00;97270.75;29394;199;64005;-54
2023/09/14 01:12:19;;;;;;;0.50;0.50;;;;;;;15.78;100.00;97264.78;29395;226;63004;-69
2023/09/14 01:12:51;;;;;;;0.40;0.40;;;;;;;15.79;100.00;97274.59;29395;219;63009;-68
2023/09/14 01:13:39;;;;;;;0.35;0.35;;;;;;;15.79;100.00;97269.12;29395;223;63004;-72
2023/09/14 01:14:23;;;;;;;0.50;0.50;;;;;;;15.80;100.00;97268.00;29395;231;63009;-68
2023/09/14 01:15:31;;;;;;;0.40;0.40;;;;;;;15.77;100.00;97265.91;29395;251;63004;-67
2023/09/14 01:16:15;;;;;;;0.43;0.43;;;;;;;15.75;100.00;97271.69;29395;266;63009;-69
2023/09/14 01:16:57;;;;;;;0.40;0.40;;;;;;;15.74;100.00;97270.06;29394;197;64009;-69
2023/09/14 01:18:05;;;;;;;0.40;0.40;;;;;;;15.73;100.00;97270.41;29395;276;63009;-69
2023/09/14 01:18:47;;;;;;;0.40;0.40;;;;;;;15.71;100.00;97267.97;29394;215;63999;-54
2023/09/14 01:19:50;;;;;;;0.40;0.40;;;;;;;15.70;100.00;97265.56;29395;213;63009;-71
2023/09/14 01:21:24;;;;;;;0.40;0.40;;;;;;;15.70;100.00;97268.28;29395;251;63004;-54
2023/09/14 01:22:22;;;;;;;0.50;0.50;;;;;;;15.68;100.00;97267.78;29394;211;64013;-54
2023/09/14 01:23:11;;;;;;;0.50;0.50;;;;;;;15.69;100.00;97274.88;29395;209;63005;-71
2023/09/14 01:24:11;;;;;;;0.43;0.43;;;;;;;15.71;100.00;97267.16;29395;204;63009;-55
2023/09/14 01:25:22;;;;;;;0.50;0.50;;;;;;;15.72;100.00;97268.78;29395;202;63005;-68
2023/09/14 01:25:55;;;;;;;0.50;0.50;;;;;;;15.72;100.00;97263.31;29439;228;63009;-70
2023/09/14 01:26:28;;;;;;;0.40;0.40;;;;;;;15.72;100.00;97268.78;29373;234;63004;-71
2023/09/14 01:27:04;;;;;;;0.40;0.40;;;;;;;15.72;100.00;97266.84;29394;262;64013;-70
2023/09/14 01:27:35;;;;;;;0.40;0.40;;;;;;;15.70;100.00;97269.09;29395;210;63004;-54
2023/09/14 01:28:11;;;;;;;0.50;0.50;;;;;;;15.67;100.00;97267.00;29395;234;63009;-68
2023/09/14 01:28:43;;;;;;;0.50;0.50;;;;;;;15.67;100.00;97272.47;29395;200;63004;-54
2023/09/14 01:29:19;;;;;;;0.45;0.45;;;;;;;15.67;100.00;97267.00;29395;212;63008;-68
2023/09/14 01:29:53;;;;;;;0.50;0.50;;;;;;;15.68;100.00;97267.78;29394;199;64009;-70
2023/09/14 01:30:24;;;;;;;0.40;0.40;;;;;;;15.68;100.00;97267.78;29395;222;63009;-68
2023/09/14 01:30:55;;;;;;;0.40;0.40;;;;;;;15.66;100.00;97270.84;29395;227;63005;-69
2023/09/14 01:31:28;;;;;;;0.40;0.40;;;;;;;15.66;100.00;97270.84;29395;227;63009;-69
2023/09/14 01:32:00;;;;;;;0.47;0.47;;;;;;;15.64;100.00;97267.63;29395;243;63005;-68
2023/09/14 01:32:31;;;;;;;0.40;0.40;;;;;;;15.63;100.00;97265.19;29395;230;63017;-68
2023/09/14 01:33:09;;;;;;;0.50;0.50;;;;;;;15.63;100.00;97267.94;29395;222;63009;-69
2023/09/14 01:33:41;;;;;;;0.40;0.40;;;;;;;15.63;100.00;97259.72;29394;267;64003;-69
2023/09/14 01:34:13;;;;;;;0.40;0.40;;;;;;;15.62;100.00;97271.78;29395;236;63004;-55
2023/09/14 01:34:44;;;;;;;0.40;0.40;;;;;;;15.58;100.00;97268.91;29395;206;63009;-69
2023/09/14 01:35:17;;;;;;;0.40;0.40;;;;;;;15.56;100.00;97270.31;29395;238;63004;-69
2023/09/14 01:36:09;;;;;;;0.40;0.40;;;;;;;15.54;100.00;97267.09;29395;230;63009;-54
2023/09/14 01:36:51;;;;;;;0.40;0.40;;;;;;;15.49;100.00;97264.47;29417;255;63004;-54
2023/09/14 01:37:23;;;;;;;0.40;0.40;;;;;;;15.45;100.00;97267.03;29395;244;63009;-67
2023/09/14 01:37:55;;;;;;;0.50;0.50;;;;;;;15.45;100.00;97268.97;29395;246;63005;-68
2023/09/14 01:38:29;;;;;;;0.40;0.40;;;;;;;15.45;100.00;97271.69;29395;215;63016;-69
2023/09/14 01:39:04;;;;;;;0.40;0.40;;;;;;;15.42;100.00;97268.47;29394;228;64001;-54
2023/09/14 01:39:37;;;;;;;0.40;0.40;;;;;;;15.42;100.00;97271.22;29395;219;63009;-68
2023/09/14 01:40:10;;;;;;;0.40;0.40;;;;;;;15.41;100.00;97275.06;29395;242;63005;-53
2023/09/14 01:40:44;;;;;;;0.40;0.40;;;;;;;15.40;100.00;97276.19;29395;197;63009;-54
2023/09/14 01:41:17;;;;;;;0.45;0.45;;;;;;;15.40;100.00;97278.13;29395;270;63005;-67
2023/09/14 01:41:54;;;;;;;0.50;0.50;;;;;;;15.41;100.00;97279.72;29395;271;63014;-55
2023/09/14 01:42:27;;;;;;;0.40;0.40;;;;;;;15.41;100.00;97269.59;29395;233;63004;-68
2023/09/14 01:42:59;;;;;;;0.40;0.40;;;;;;;15.41;100.00;97272.31;29395;225;63009;-54
2023/09/14 01:43:32;;;;;;;0.40;0.40;;;;;;;15.41;100.00;97280.53;29395;217;63004;-67
2023/09/14 01:44:04;;;;;;;0.40;0.40;;;;;;;15.42;100.00;97281.34;29394;202;64013;-54
2023/09/14 01:44:36;;;;;;;0.50;0.50;;;;;;;15.40;100.00;97276.19;29395;231;63008;-68
2023/09/14 01:45:09;;;;;;;0.40;0.40;;;;;;;15.40;100.00;97276.19;29394;215;64014;-69
2023/09/14 01:45:42;;;;;;;0.40;0.40;;;;;;;15.41;100.00;97277.78;29395;203;63010;-68
2023/09/14 01:46:14;;;;;;;0.40;0.40;;;;;;;15.42;100.00;97275.88;29395;291;63009;-68
2023/09/14 01:46:47;;;;;;;0.50;0.50;;;;;;;15.43;100.00;97278.28;29395;222;63005;-68
2023/09/14 01:47:19;;;;;;;0.40;0.40;;;;;;;15.45;100.00;97274.44;29395;213;63009;-68
2023/09/14 01:47:53;;;;;;;0.40;0.40;;;;;;;15.43;100.00;97278.28;29395;232;63005;-69
2023/09/14 01:48:24;;;;;;;0.40;0.40;;;;;;;15.45;100.00;97277.16;29395;203;63024;-54
2023/09/14 01:48:55;;;;;;;0.40;0.40;;;;;;;15.46;100.00;97270.59;29395;234;63004;-69
2023/09/14 01:49:27;;;;;;;0.40;0.40;;;;;;;15.47;100.00;97272.19;29395;197;63009;-69
2023/09/14 01:50:02;;;;;;;0.40;0.40;;;;;;;15.49;100.00;97273.50;29395;223;63004;-70
2023/09/14 01:50:33;;;;;;;0.45;0.45;;;;;;;15.49;100.00;97273.50;29394;204;64003;-69
2023/09/14 01:51:04;;;;;;;0.40;0.40;;;;;;;15.52;100.00;97274.78;29395;247;63004;-54
2023/09/14 01:51:35;;;;;;;0.40;0.40;;;;;;;15.53;100.00;97276.41;29395;215;63008;-68
2023/09/14 01:52:07;;;;;;;0.40;0.40;;;;;;;15.53;100.00;97271.75;29394;261;64008;-71
2023/09/14 01:52:41;;;;;;;0.40;0.40;;;;;;;15.55;100.00;97282.38;29395;250;63009;-71
2023/09/14 01:53:16;;;;;;;0.40;0.40;;;;;;;15.57;100.00;97274.69;29395;238;63008;-54
2023/09/14 01:53:47;;;;;;;0.40;0.40;;;;;;;15.57;100.00;97277.44;29395;260;63009;-69
2023/09/14 01:54:19;;;;;;;0.40;0.40;;;;;;;15.56;100.00;97271.16;29395;214;63005;-69
2023/09/14 01:54:50;;;;;;;0.45;0.45;;;;;;;15.58;100.00;97279.84;29395;218;63009;-54
2023/09/14 01:55:21;;;;;;;0.40;0.40;;;;;;;15.58;100.00;97274.38;29395;250;63005;-54
2023/09/14 01:55:53;;;;;;;0.35;0.35;;;;;;;15.59;100.00;97269.72;29395;206;63016;-68
2023/09/14 01:56:24;;;;;;;0.40;0.40;;;;;;;15.59;100.00;97275.19;29395;218;63005;-70
2023/09/14 01:56:55;;;;;;;0.40;0.40;;;;;;;15.59;100.00;97277.91;29395;198;63009;-54
2023/09/14 01:57:26;;;;;;;0.40;0.40;;;;;;;15.60;100.00;97277.56;29394;203;64009;-54
2023/09/14 01:57:59;;;;;;;0.50;0.50;;;;;;;15.61;100.00;97273.72;29395;244;63014;-70
2023/09/14 01:58:31;;;;;;;0.40;0.40;;;;;;;15.61;100.00;97281.13;29395;206;63004;-72
2023/09/14 01:59:02;;;;;;;0.50;0.50;;;;;;;15.63;100.00;97281.59;29395;213;63008;-69
2023/09/14 01:59:34;;;;;;;0.40;0.40;;;;;;;15.64;100.00;97283.22;29395;216;63004;-55
2023/09/14 02:00:08;;;;;;;0.40;0.40;;;;;;;15.64;100.00;97283.22;29394;203;64009;-67
2023/09/14 02:00:40;;;;;;;0.40;0.40;;;;;;;15.63;100.00;97276.12;29394;205;64009;-69
2023/09/14 02:01:12;;;;;;;0.50;0.50;;;;;;;15.64;100.00;97277.75;29395;224;63009;-69
2023/09/14 02:01:43;;;;;;;0.43;0.43;;;;;;;15.64;100.00;97280.50;29395;320;63005;-70
2023/09/14 02:02:14;;;;;;;0.50;0.50;;;;;;;15.64;100.00;97275.81;29395;251;63009;-69
2023/09/14 02:02:50;;;;;;;0.40;0.40;;;;;;;15.63;100.00;97282.41;29395;305;63005;-69
2023/09/14 02:03:22;;;;;;;0.40;0.40;;;;;;;15.63;100.00;97276.12;29394;242;64013;-55
2023/09/14 02:03:54;;;;;;;0.50;0.50;;;;;;;15.63;100.00;97282.41;29395;267;63004;-69
2023/09/14 02:04:25;;;;;;;0.47;0.47;;;;;;;15.63;100.00;97287.09;29395;283;63009;-71
2023/09/14 02:05:00;;;;;;;0.40;0.40;;;;;;;15.64;100.00;97280.50;29395;222;63004;-70
2023/09/14 02:05:31;;;;;;;0.50;0.50;;;;;;;15.66;100.00;97280.97;29395;212;63009;-70
2023/09/14 02:06:02;;;;;;;0.40;0.40;;;;;;;15.66;100.00;97286.44;29395;243;63004;-69
2023/09/14 02:06:34;;;;;;;0.50;0.50;;;;;;;15.67;100.00;97285.34;29395;230;63008;-69
2023/09/14 02:07:05;;;;;;;0.40;0.40;;;;;;;15.67;100.00;97288.06;29394;220;64008;-54
2023/09/14 02:07:37;;;;;;;0.50;0.50;;;;;;;15.65;100.00;97282.09;29395;220;63009;-69
2023/09/14 02:08:08;;;;;;;0.50;0.50;;;;;;;15.65;100.00;97273.91;29394;241;64009;-69
2023/09/14 02:08:39;;;;;;;0.40;0.40;;;;;;;15.64;100.00;97278.56;29395;220;63009;-68
2023/09/14 02:09:10;;;;;;;0.43;0.43;;;;;;;15.64;100.00;97272.28;29395;220;63005;-71
2023/09/14 02:09:42;;;;;;;0.43;0.43;;;;;;;15.63;100.00;97281.59;29394;244;64013;-70
2023/09/14 02:10:14;;;;;;;0.50;0.50;;;;;;;15.63;100.00;97278.88;29395;203;63005;-69
2023/09/14 02:10:49;;;;;;;0.40;0.40;;;;;;;15.64;100.00;97283.22;29395;274;63009;-69
2023/09/14 02:11:20;;;;;;;0.43;0.43;;;;;;;15.64;100.00;97283.22;29395;199;63004;-69
2023/09/14 02:11:53;;;;;;;0.40;0.40;;;;;;;15.64;100.00;97280.50;29395;205;63017;-70
2023/09/14 02:12:25;;;;;;;0.50;0.50;;;;;;;15.63;100.00;97278.88;29395;212;63004;-69
2023/09/14 02:12:56;;;;;;;0.40;0.40;;;;;;;15.65;100.00;97276.62;29395;218;63009;-73
2023/09/14 02:13:28;;;;;;;0.40;0.40;;;;;;;15.67;100.00;97277.12;29395;216;63004;-70
2023/09/14 02:13:59;;;;;;;0.40;0.40;;;;;;;15.66;100.00;97275.50;29394;224;64013;-69
2023/09/14 02:14:30;;;;;;;0.50;0.50;;;;;;;15.65;100.00;97282.91;29394;254;64005;-70
2023/09/14 02:15:02;;;;;;;0.40;0.40;;;;;;;15.66;100.00;97283.72;29395;244;63009;-69
2023/09/14 02:15:35;;;;;;;0.40;0.40;;;;;;;15.65;100.00;97282.09;29395;221;63005;-68
2023/09/14 02:16:09;;;;;;;0.40;0.40;;;;;;;15.64;100.00;97283.22;29395;255;63009;-68
2023/09/14 02:16:40;;;;;;;0.40;0.40;;;;;;;15.63;100.00;97282.41;29395;240;63005;-68
2023/09/14 02:17:11;;;;;;;0.40;0.40;;;;;;;15.63;100.00;97287.09;29395;233;63009;-68
2023/09/14 02:17:44;;;;;;;0.40;0.40;;;;;;;15.62;100.00;97282.72;29395;220;63005;-54
2023/09/14 02:18:16;;;;;;;0.40;0.40;;;;;;;15.60;100.00;97287.72;29395;198;63009;-70
2023/09/14 02:18:48;;;;;;;0.40;0.40;;;;;;;15.60;100.00;97279.50;29394;231;64009;-69
2023/09/14 02:19:22;;;;;;;0.40;0.40;;;;;;;15.60;100.00;97276.78;29395;203;63009;-54
2023/09/14 02:19:54;;;;;;;0.50;0.50;;;;;;;15.59;100.00;97276.00;29395;245;63004;-69
2023/09/14 02:20:25;;;;;;;0.50;0.50;;;;;;;15.59;100.00;97283.38;29395;240;63009;-69
2023/09/14 02:20:57;;;;;;;0.40;0.40;;;;;;;15.59;100.00;97276.00;29395;228;63004;-68
2023/09/14 02:21:28;;;;;;;0.40;0.40;;;;;;;15.60;100.00;97276.78;29394;212;64013;-69
2023/09/14 02:21:59;;;;;;;0.40;0.40;;;;;;;15.60;100.00;97283.03;29395;222;63001;-67
2023/09/14 02:22:32;;;;;;;0.40;0.40;;;;;;;15.62;100.00;97282.72;29395;243;63009;-69
2023/09/14 02:23:04;;;;;;;0.40;0.40;;;;;;;15.61;100.00;97284.66;29395;229;63010;-54
2023/09/14 02:23:35;;;;;;;0.40;0.40;;;;;;;15.61;100.00;97278.38;29395;237;63009;-55
2023/09/14 02:24:07;;;;;;;0.45;0.45;;;;;;;15.62;100.00;97275.34;29395;232;63005;-71
2023/09/14 02:24:38;;;;;;;0.40;0.40;;;;;;;15.63;100.00;97282.41;29395;226;63019;-70
2023/09/14 02:25:09;;;;;;;0.50;0.50;;;;;;;15.64;100.00;97284.03;29395;228;63005;-69
2023/09/14 02:25:43;;;;;;;0.43;0.43;;;;;;;15.65;100.00;97276.62;29395;207;63019;-53
2023/09/14 02:26:17;;;;;;;0.40;0.40;;;;;;;15.67;100.00;97282.59;29395;234;63004;-69
2023/09/14 02:26:51;;;;;;;0.40;0.40;;;;;;;15.67;100.00;97277.12;29394;234;64013;-70
2023/09/14 02:27:23;;;;;;;0.40;0.40;;;;;;;15.68;100.00;97278.75;29395;210;63004;-67
2023/09/14 02:27:56;;;;;;;0.40;0.40;;;;;;;15.65;100.00;97279.37;29395;208;63024;-69
2023/09/14 02:28:28;;;;;;;0.40;0.40;;;;;;;15.71;100.00;97286.31;29395;212;63004;-68
2023/09/14 02:28:59;;;;;;;0.40;0.40;;;;;;;15.71;100.00;97273.44;29395;255;63016;-69
2023/09/14 02:29:31;;;;;;;0.40;0.40;;;;;;;15.70;100.00;97279.22;29395;278;63005;-69
2023/09/14 02:30:03;;;;;;;0.40;0.40;;;;;;;15.69;100.00;97274.88;29395;220;63009;-68
2023/09/14 02:30:39;;;;;;;0.40;0.40;;;;;;;15.70;100.00;97284.69;29395;215;63005;-58
2023/09/14 02:31:10;;;;;;;0.40;0.40;;;;;;;15.70;100.00;97281.97;29395;204;63009;-54
2023/09/14 02:31:43;;;;;;;0.50;0.50;;;;;;;15.67;100.00;97277.12;29394;229;64009;-69
2023/09/14 02:32:14;;;;;;;0.50;0.50;;;;;;;15.65;100.00;97279.37;29395;235;63009;-69
2023/09/14 02:32:45;;;;;;;0.40;0.40;;;;;;;15.64;100.00;97284.03;29395;207;63005;-69
2023/09/14 02:33:17;;;;;;;0.50;0.50;;;;;;;15.65;100.00;97279.37;29395;202;63009;-69
2023/09/14 02:33:48;;;;;;;0.50;0.50;;;;;;;15.69;100.00;97280.34;29395;238;63004;-68
2023/09/14 02:34:19;;;;;;;0.40;0.40;;;;;;;15.69;100.00;97292.09;29395;197;63009;-54
2023/09/14 02:34:50;;;;;;;0.30;0.30;;;;;;;15.68;100.00;97286.94;29395;228;63004;-68
2023/09/14 02:35:21;;;;;;;0.35;0.35;;;;;;;15.66;100.00;97280.97;29395;219;63004;-54
2023/09/14 02:35:53;;;;;;;0.40;0.40;;;;;;;15.64;100.00;97283.22;29395;210;63004;-69
2023/09/14 02:36:25;;;;;;;0.40;0.40;;;;;;;15.64;100.00;97283.22;29395;210;63008;-68
2023/09/14 02:36:57;;;;;;;0.40;0.40;;;;;;;15.62;100.00;97280.81;29394;202;64009;-55
2023/09/14 02:37:28;;;;;;;0.40;0.40;;;;;;;15.61;100.00;97289.31;29395;228;63009;-54
2023/09/14 02:38:00;;;;;;;0.40;0.40;;;;;;;15.57;100.00;97288.37;29395;233;63012;-68
2023/09/14 02:38:33;;;;;;;0.40;0.40;;;;;;;15.53;100.00;97281.88;29395;211;63009;-68